Change the Weather History Date:

Tuesday, March 18, 2014

  Actual Average (KCHS) Record (KCHS)
Temperature  
Mean Temperature 44 °F 59 °F  
Max Temperature 50 °F 70 °F 90 °F (1963)
Min Temperature 39 °F 47 °F 28 °F (1941)
Degree Days  
Heating Degree Days 20 7  
Month to date heating degree days 163  
Since 1 July heating degree days 1799  
Cooling Degree Days 0 1  
Month to date cooling degree days 16  
Year to date cooling degree days 23  
Moisture  
Dew Point 43 °F    
Average Humidity 96    
Maximum Humidity 100    
Minimum Humidity 82    
Precipitation  
Precipitation 0.00 in 0.12 in 2.45 in (1961)
Month to date precipitation 2.13  
Year to date precipitation 8.80  
Sea Level Pressure  
Sea Level Pressure 29.94 in    
Wind  
Wind Speed 13 mph (North)    
Max Wind Speed 17 mph    
Max Gust Speed 24 mph    
Visibility 9 miles    
Events Rain    
T = Trace of Precipitation, MM = Missing Value Source: NWS Daily Summary

Daily Weather History Graph

Daily Weather History Graph

Search for Another Location

Airport or City:

Trip Planner

Search our weather history database for the weather conditions in past years. The results will help you decide how hot, cold, wet, or windy it might be!

Date:

Astronomy

Mar. 18, 2014 Rise Set
Actual Time 7:26 AM EDT 7:30 PM EDT
Civil Twilight 7:01 AM EDT 7:54 PM EDT
Nautical Twilight 6:33 AM EDT 8:23 PM EDT
Astronomical Twilight 6:04 AM EDT 8:52 PM EDT
Moon 9:36 PM EDT (3/18) 8:21 AM EDT (3/18)
Length of Visible Light 12h 52m
Length of Day
12h 03m
Waning Gibbous, 96% of the Moon is Illuminated
Mar 18
Waning Gibbous
Mar 23
Last Quarter
Mar 30
New
Apr 7
First Quarter
Apr 15
Full

Hourly Weather History & Observations

Time (EDT) Temp. Windchill Dew Point Humidity Pressure Visibility Wind Dir Wind Speed Gust Speed Precip Events Conditions
12:15 AM 44.6 °F 38.1 °F 44.6 °F 100% 29.84 in 10.0 mi North 13.8 mph 18.4 mph 0.00 in   Overcast
12:35 AM 44.6 °F 38.8 °F 44.6 °F 100% 29.85 in 10.0 mi North 11.5 mph 16.1 mph 0.00 in   Light Drizzle
12:55 AM 42.8 °F 35.1 °F 42.8 °F 100% 29.83 in 9.0 mi North 16.1 mph 19.6 mph 0.00 in   Overcast
1:15 AM 42.8 °F 36.2 °F 42.8 °F 100% 29.83 in 6.0 mi North 12.7 mph 21.9 mph 0.00 in Rain Rain
1:35 AM 42.8 °F 37.0 °F 42.8 °F 100% 29.83 in 6.0 mi North 10.4 mph 17.3 mph 0.00 in Rain Light Rain
1:55 AM 42.8 °F 35.4 °F 42.8 °F 100% 29.82 in 5.0 mi North 15.0 mph - 0.00 in Rain Light Rain
2:15 AM 42.8 °F 34.8 °F 42.8 °F 100% 29.80 in 5.0 mi North 17.3 mph 21.9 mph 0.00 in   Overcast
2:35 AM 42.8 °F 36.2 °F 42.8 °F 100% 29.80 in 5.0 mi North 12.7 mph 19.6 mph 0.00 in Rain Light Rain
2:55 AM 42.8 °F 35.1 °F 42.8 °F 100% 29.79 in 2.5 mi North 16.1 mph 21.9 mph 0.00 in   Overcast
3:15 AM 42.8 °F 36.6 °F 42.8 °F 100% 29.84 in 5.0 mi NNE 11.5 mph 17.3 mph 0.00 in   Overcast
3:35 AM 42.8 °F 38.0 °F 42.8 °F 100% 29.86 in 3.0 mi North 8.1 mph 16.1 mph 0.00 in Rain Light Rain
3:55 AM 41.0 °F 32.8 °F 41.0 °F 100% 29.80 in 5.0 mi North 16.1 mph 20.7 mph 0.00 in Rain Light Rain
4:15 AM 41.0 °F 33.9 °F 41.0 °F 100% 29.81 in 10.0 mi North 12.7 mph 18.4 mph 0.00 in   Overcast
4:35 AM 41.0 °F 33.5 °F 41.0 °F 100% 29.83 in 10.0 mi North 13.8 mph - 0.00 in   Overcast
4:55 AM 41.0 °F 34.7 °F 41.0 °F 100% 29.82 in 10.0 mi North 10.4 mph 19.6 mph 0.00 in Rain Light Rain
5:15 AM 39.2 °F 30.8 °F 39.2 °F 100% 29.80 in 10.0 mi North 15.0 mph 19.6 mph 0.00 in   Overcast
5:35 AM 39.2 °F 31.6 °F 39.2 °F 100% 29.79 in 8.0 mi North 12.7 mph 18.4 mph 0.00 in   Overcast
5:55 AM 39.2 °F 31.2 °F 39.2 °F 100% 29.81 in 10.0 mi North 13.8 mph 24.2 mph 0.00 in   Overcast
6:15 AM 39.2 °F 31.2 °F 39.2 °F 100% 29.79 in 10.0 mi North 13.8 mph 23.0 mph 0.00 in Rain Light Rain
6:35 AM 39.2 °F 30.8 °F 39.2 °F 100% 29.78 in 10.0 mi North 15.0 mph 20.7 mph 0.00 in   Overcast
6:55 AM 39.2 °F 31.6 °F 39.2 °F 100% 29.79 in 9.0 mi North 12.7 mph - 0.00 in   Overcast
7:15 AM 39.2 °F 32.0 °F 39.2 °F 100% 29.82 in 8.0 mi North 11.5 mph 17.3 mph 0.00 in   Overcast
7:35 AM 39.2 °F 30.5 °F 39.2 °F 100% 29.82 in 9.0 mi North 16.1 mph 24.2 mph 0.00 in   Overcast
7:55 AM 39.2 °F 30.8 °F 39.2 °F 100% 29.83 in 10.0 mi NNE 15.0 mph 18.4 mph 0.00 in   Overcast
8:15 AM 39.2 °F 31.6 °F 39.2 °F 100% 29.84 in 10.0 mi NNE 12.7 mph - 0.00 in   Overcast
8:35 AM 39.2 °F 30.5 °F 39.2 °F 100% 29.85 in 10.0 mi North 16.1 mph 20.7 mph 0.00 in   Overcast
8:55 AM 39.2 °F 31.6 °F 39.2 °F 100% 29.85 in 6.0 mi North 12.7 mph 19.6 mph 0.00 in   Overcast
9:15 AM 39.2 °F 32.5 °F 39.2 °F 100% 29.90 in 1.8 mi NNW 10.4 mph 17.3 mph 0.00 in Rain Light Rain
9:35 AM 39.2 °F 32.5 °F 39.2 °F 100% 29.92 in 3.0 mi NNW 10.4 mph 16.1 mph 0.00 in   Overcast
9:55 AM 39.2 °F 33.0 °F 39.2 °F 100% 29.93 in 1.2 mi NNW 9.2 mph - 0.00 in   Overcast
10:15 AM 39.2 °F 32.5 °F 39.2 °F 100% 29.94 in 3.0 mi NNW 10.4 mph - 0.00 in   Overcast
10:35 AM 41.0 °F 35.8 °F 41.0 °F 100% 29.94 in 2.0 mi NNW 8.1 mph 16.1 mph 0.00 in   Overcast
10:55 AM 41.0 °F 34.3 °F 41.0 °F 100% 29.96 in 4.0 mi NNW 11.5 mph - 0.00 in   Overcast
11:15 AM 42.8 °F 36.6 °F 42.8 °F 100% 29.98 in 10.0 mi North 11.5 mph 16.1 mph 0.00 in   Overcast
11:35 AM 42.8 °F 36.6 °F 42.8 °F 100% 30.00 in 10.0 mi NNW 11.5 mph - 0.00 in   Overcast
11:55 AM 42.8 °F 36.6 °F 42.8 °F 100% 29.98 in 10.0 mi North 11.5 mph - 0.00 in   Overcast
12:15 PM 42.8 °F 36.6 °F 42.8 °F 100% 29.98 in 10.0 mi North 11.5 mph 18.4 mph 0.00 in   Overcast
12:35 PM 44.6 °F 38.8 °F 44.6 °F 100% 29.99 in 10.0 mi NNW 11.5 mph 19.6 mph 0.00 in   Overcast
12:55 PM 44.6 °F 38.8 °F 42.8 °F 93% 30.00 in 10.0 mi NNW 11.5 mph - 0.00 in   Overcast
1:15 PM 44.6 °F 38.4 °F 42.8 °F 93% 30.00 in 10.0 mi NNW 12.7 mph - 0.00 in   Overcast
1:35 PM 44.6 °F 38.8 °F 42.8 °F 93% 30.00 in 10.0 mi North 11.5 mph 19.6 mph 0.00 in   Overcast
1:55 PM 46.4 °F 41.1 °F 44.6 °F 93% 29.99 in 10.0 mi NNW 11.5 mph - 0.00 in   Overcast
2:15 PM 46.4 °F 40.4 °F 44.6 °F 93% 29.98 in 10.0 mi NNW 13.8 mph 17.3 mph 0.00 in   Overcast
2:35 PM 48.2 °F - 44.6 °F 87% 29.98 in 10.0 mi North 15.0 mph - 0.00 in   Overcast
2:55 PM 50.0 °F - 46.4 °F 87% 29.97 in 10.0 mi NNW 15.0 mph 19.6 mph 0.00 in   Overcast
3:15 PM 50.0 °F - 44.6 °F 82% 29.97 in 10.0 mi North 15.0 mph 21.9 mph 0.00 in   Overcast
3:35 PM 50.0 °F - 44.6 °F 82% 29.98 in 10.0 mi North 17.3 mph - 0.00 in   Overcast
3:55 PM 48.2 °F - 44.6 °F 87% 29.99 in 10.0 mi NNW 12.7 mph 21.9 mph 0.00 in   Overcast
4:15 PM 50.0 °F - 44.6 °F 82% 29.99 in 10.0 mi North 15.0 mph 24.2 mph 0.00 in   Overcast
4:35 PM 48.2 °F - 44.6 °F 87% 29.99 in 10.0 mi NNW 12.7 mph 19.6 mph 0.00 in   Overcast
4:55 PM 48.2 °F - 44.6 °F 87% 29.99 in 10.0 mi North 13.8 mph 23.0 mph 0.00 in   Overcast
5:15 PM 48.2 °F - 44.6 °F 87% 30.00 in 10.0 mi North 12.7 mph 19.6 mph 0.00 in   Overcast
5:35 PM 48.2 °F - 44.6 °F 87% 30.00 in 10.0 mi NNW 12.7 mph 18.4 mph 0.00 in   Overcast
5:55 PM 48.2 °F - 44.6 °F 87% 30.01 in 10.0 mi North 11.5 mph 19.6 mph 0.00 in   Overcast
6:15 PM 46.4 °F 41.1 °F 44.6 °F 93% 30.01 in 10.0 mi North 11.5 mph 16.1 mph 0.00 in   Overcast
6:35 PM 46.4 °F 41.1 °F 44.6 °F 93% 30.01 in 10.0 mi North 11.5 mph - 0.00 in   Overcast
6:55 PM 46.4 °F 40.4 °F 44.6 °F 93% 30.02 in 10.0 mi North 13.8 mph - 0.00 in   Overcast
7:15 PM 46.4 °F 41.5 °F 44.6 °F 93% 30.03 in 10.0 mi North 10.4 mph 17.3 mph 0.00 in   Overcast
7:35 PM 46.4 °F 41.5 °F 44.6 °F 93% 30.04 in 10.0 mi NNW 10.4 mph - 0.00 in   Overcast
7:55 PM 46.4 °F 41.5 °F 44.6 °F 93% 30.05 in 10.0 mi North 10.4 mph 18.4 mph 0.00 in   Overcast
8:15 PM 46.4 °F 41.5 °F 44.6 °F 93% 30.06 in 10.0 mi North 10.4 mph 19.6 mph 0.00 in   Overcast
8:35 PM 46.4 °F 41.1 °F 44.6 °F 93% 30.07 in 10.0 mi North 11.5 mph - 0.00 in   Overcast
8:55 PM 46.4 °F 41.5 °F 44.6 °F 93% 30.08 in 10.0 mi North 10.4 mph 17.3 mph 0.00 in   Overcast
9:15 PM 46.4 °F 40.7 °F 44.6 °F 93% 30.09 in 10.0 mi North 12.7 mph 16.1 mph 0.00 in   Overcast
9:35 PM 44.6 °F 39.7 °F 44.6 °F 100% 30.11 in 10.0 mi North 9.2 mph - 0.00 in   Overcast
9:55 PM 46.4 °F 41.1 °F 44.6 °F 93% 30.11 in 10.0 mi NNE 11.5 mph - 0.00 in   Overcast
10:15 PM 46.4 °F 41.5 °F 44.6 °F 93% 30.12 in 10.0 mi North 10.4 mph - 0.00 in   Overcast
10:35 PM 46.4 °F 42.4 °F 44.6 °F 93% 30.12 in 10.0 mi North 8.1 mph - 0.00 in   Overcast
10:55 PM 46.4 °F 43.5 °F 44.6 °F 93% 30.12 in 10.0 mi North 5.8 mph - 0.00 in   Overcast
11:15 PM 46.4 °F 43.5 °F 44.6 °F 93% 30.12 in 10.0 mi North 5.8 mph - 0.00 in   Overcast
11:35 PM 44.6 °F 41.4 °F 44.6 °F 100% 30.13 in 10.0 mi North 5.8 mph - 0.00 in   Overcast
11:55 PM 44.6 °F 40.2 °F 44.6 °F 100% 30.13 in 10.0 mi North 8.1 mph - 0.00 in   Overcast